sensor_id;sensor_type;location;lat;lon;timestamp;P1;durP1;ratioP1;P2;durP2;ratioP2
4278;SDS011;2153;47.744;10.580;2023-09-12T00:02:26;24.27;;;10.27;;
4278;SDS011;2153;47.744;10.580;2023-09-12T00:04:54;28.17;;;11.67;;
4278;SDS011;2153;47.744;10.580;2023-09-12T00:07:20;23.17;;;11.23;;
4278;SDS011;2153;47.744;10.580;2023-09-12T00:09:47;24.87;;;11.10;;
4278;SDS011;2153;47.744;10.580;2023-09-12T00:12:14;27.90;;;10.50;;
4278;SDS011;2153;47.744;10.580;2023-09-12T00:14:42;22.65;;;10.15;;
4278;SDS011;2153;47.744;10.580;2023-09-12T00:17:09;26.33;;;10.70;;
4278;SDS011;2153;47.744;10.580;2023-09-12T00:19:36;24.80;;;13.00;;
4278;SDS011;2153;47.744;10.580;2023-09-12T00:22:03;23.30;;;11.23;;
4278;SDS011;2153;47.744;10.580;2023-09-12T00:24:29;22.30;;;11.70;;
4278;SDS011;2153;47.744;10.580;2023-09-12T00:26:56;21.97;;;10.70;;
4278;SDS011;2153;47.744;10.580;2023-09-12T00:29:23;23.50;;;10.50;;
4278;SDS011;2153;47.744;10.580;2023-09-12T00:31:51;22.10;;;9.85;;
4278;SDS011;2153;47.744;10.580;2023-09-12T00:34:17;21.77;;;10.43;;
4278;SDS011;2153;47.744;10.580;2023-09-12T00:36:44;23.87;;;10.73;;
4278;SDS011;2153;47.744;10.580;2023-09-12T00:39:11;25.70;;;9.63;;
4278;SDS011;2153;47.744;10.580;2023-09-12T00:41:37;23.90;;;10.60;;
4278;SDS011;2153;47.744;10.580;2023-09-12T00:44:04;27.53;;;11.90;;
4278;SDS011;2153;47.744;10.580;2023-09-12T00:46:32;22.60;;;10.30;;
4278;SDS011;2153;47.744;10.580;2023-09-12T00:49:01;24.50;;;10.80;;
4278;SDS011;2153;47.744;10.580;2023-09-12T00:51:30;23.73;;;10.40;;
4278;SDS011;2153;47.744;10.580;2023-09-12T00:53:58;25.50;;;11.50;;
4278;SDS011;2153;47.744;10.580;2023-09-12T00:56:25;23.10;;;10.80;;
4278;SDS011;2153;47.744;10.580;2023-09-12T00:58:52;25.13;;;10.30;;
4278;SDS011;2153;47.744;10.580;2023-09-12T01:01:19;24.70;;;10.70;;
4278;SDS011;2153;47.744;10.580;2023-09-12T01:03:47;23.50;;;10.70;;
4278;SDS011;2153;47.744;10.580;2023-09-12T01:06:15;24.93;;;10.73;;
4278;SDS011;2153;47.744;10.580;2023-09-12T01:08:47;27.10;;;11.10;;
4278;SDS011;2153;47.744;10.580;2023-09-12T01:11:14;24.80;;;10.90;;
4278;SDS011;2153;47.744;10.580;2023-09-12T01:13:43;23.87;;;12.03;;
4278;SDS011;2153;47.744;10.580;2023-09-12T01:16:09;23.17;;;11.43;;
4278;SDS011;2153;47.744;10.580;2023-09-12T01:18:36;25.03;;;11.90;;
4278;SDS011;2153;47.744;10.580;2023-09-12T01:21:12;21.47;;;10.70;;
4278;SDS011;2153;47.744;10.580;2023-09-12T01:23:59;25.70;;;10.10;;
4278;SDS011;2153;47.744;10.580;2023-09-12T01:26:40;25.40;;;11.20;;
4278;SDS011;2153;47.744;10.580;2023-09-12T01:29:14;21.47;;;10.93;;
4278;SDS011;2153;47.744;10.580;2023-09-12T01:31:42;27.73;;;11.37;;
4278;SDS011;2153;47.744;10.580;2023-09-12T01:34:10;26.40;;;12.33;;
4278;SDS011;2153;47.744;10.580;2023-09-12T01:36:37;24.50;;;11.57;;
4278;SDS011;2153;47.744;10.580;2023-09-12T01:39:04;26.40;;;11.27;;
4278;SDS011;2153;47.744;10.580;2023-09-12T01:44:00;21.60;;;10.40;;
4278;SDS011;2153;47.744;10.580;2023-09-12T01:46:31;23.63;;;11.13;;
4278;SDS011;2153;47.744;10.580;2023-09-12T01:49:00;24.00;;;10.97;;
4278;SDS011;2153;47.744;10.580;2023-09-12T01:51:28;28.75;;;10.95;;
4278;SDS011;2153;47.744;10.580;2023-09-12T01:53:56;29.03;;;12.63;;
4278;SDS011;2153;47.744;10.580;2023-09-12T01:56:24;23.53;;;11.30;;
4278;SDS011;2153;47.744;10.580;2023-09-12T01:58:51;23.80;;;11.50;;
4278;SDS011;2153;47.744;10.580;2023-09-12T02:01:18;23.87;;;12.60;;
4278;SDS011;2153;47.744;10.580;2023-09-12T02:03:47;26.43;;;11.77;;
4278;SDS011;2153;47.744;10.580;2023-09-12T02:06:14;30.87;;;10.80;;
4278;SDS011;2153;47.744;10.580;2023-09-12T02:08:40;27.10;;;11.60;;
4278;SDS011;2153;47.744;10.580;2023-09-12T02:11:07;21.97;;;10.53;;
4278;SDS011;2153;47.744;10.580;2023-09-12T02:13:34;25.10;;;10.80;;
4278;SDS011;2153;47.744;10.580;2023-09-12T02:16:01;22.33;;;11.27;;
4278;SDS011;2153;47.744;10.580;2023-09-12T02:18:28;25.33;;;10.10;;
4278;SDS011;2153;47.744;10.580;2023-09-12T02:20:56;23.57;;;11.47;;
4278;SDS011;2153;47.744;10.580;2023-09-12T02:23:24;23.17;;;11.07;;
4278;SDS011;2153;47.744;10.580;2023-09-12T02:25:51;29.87;;;11.60;;
4278;SDS011;2153;47.744;10.580;2023-09-12T02:28:17;23.30;;;10.90;;
4278;SDS011;2153;47.744;10.580;2023-09-12T02:30:44;22.50;;;10.60;;
4278;SDS011;2153;47.744;10.580;2023-09-12T02:33:11;24.40;;;10.87;;
4278;SDS011;2153;47.744;10.580;2023-09-12T02:35:37;22.47;;;11.03;;
4278;SDS011;2153;47.744;10.580;2023-09-12T02:38:05;20.77;;;9.97;;
4278;SDS011;2153;47.744;10.580;2023-09-12T02:40:32;22.23;;;11.20;;
4278;SDS011;2153;47.744;10.580;2023-09-12T02:42:59;23.77;;;11.97;;
4278;SDS011;2153;47.744;10.580;2023-09-12T02:45:26;21.10;;;10.10;;
4278;SDS011;2153;47.744;10.580;2023-09-12T02:47:52;23.87;;;12.07;;
4278;SDS011;2153;47.744;10.580;2023-09-12T02:50:19;22.63;;;10.87;;
4278;SDS011;2153;47.744;10.580;2023-09-12T02:52:46;24.07;;;10.17;;
4278;SDS011;2153;47.744;10.580;2023-09-12T02:55:14;20.70;;;10.10;;
4278;SDS011;2153;47.744;10.580;2023-09-12T02:57:41;36.13;;;11.57;;
4278;SDS011;2153;47.744;10.580;2023-09-12T03:00:08;23.80;;;10.60;;
4278;SDS011;2153;47.744;10.580;2023-09-12T03:02:36;20.53;;;10.53;;
4278;SDS011;2153;47.744;10.580;2023-09-12T03:05:03;24.30;;;11.50;;
4278;SDS011;2153;47.744;10.580;2023-09-12T03:07:30;21.90;;;12.00;;
4278;SDS011;2153;47.744;10.580;2023-09-12T03:09:57;25.23;;;12.00;;
4278;SDS011;2153;47.744;10.580;2023-09-12T03:12:25;23.67;;;10.20;;
4278;SDS011;2153;47.744;10.580;2023-09-12T03:14:52;26.60;;;11.03;;
4278;SDS011;2153;47.744;10.580;2023-09-12T03:17:19;23.00;;;9.83;;
4278;SDS011;2153;47.744;10.580;2023-09-12T03:19:46;25.70;;;11.37;;
4278;SDS011;2153;47.744;10.580;2023-09-12T03:22:12;22.70;;;11.13;;
4278;SDS011;2153;47.744;10.580;2023-09-12T03:24:39;22.50;;;10.97;;
4278;SDS011;2153;47.744;10.580;2023-09-12T03:27:06;22.17;;;11.50;;
4278;SDS011;2153;47.744;10.580;2023-09-12T03:29:35;24.13;;;11.83;;
4278;SDS011;2153;47.744;10.580;2023-09-12T03:32:01;25.83;;;11.57;;
4278;SDS011;2153;47.744;10.580;2023-09-12T03:34:28;22.85;;;11.85;;
4278;SDS011;2153;47.744;10.580;2023-09-12T03:36:55;26.77;;;11.80;;
4278;SDS011;2153;47.744;10.580;2023-09-12T03:39:22;21.40;;;10.60;;
4278;SDS011;2153;47.744;10.580;2023-09-12T03:41:48;23.67;;;11.43;;
4278;SDS011;2153;47.744;10.580;2023-09-12T03:44:15;22.03;;;10.50;;
4278;SDS011;2153;47.744;10.580;2023-09-12T03:46:43;21.40;;;9.97;;
4278;SDS011;2153;47.744;10.580;2023-09-12T03:49:10;26.03;;;11.90;;
4278;SDS011;2153;47.744;10.580;2023-09-12T03:51:36;24.93;;;11.30;;
4278;SDS011;2153;47.744;10.580;2023-09-12T03:54:04;25.07;;;12.67;;
4278;SDS011;2153;47.744;10.580;2023-09-12T03:56:30;23.53;;;11.73;;
4278;SDS011;2153;47.744;10.580;2023-09-12T03:58:57;27.80;;;12.70;;
4278;SDS011;2153;47.744;10.580;2023-09-12T04:01:24;24.57;;;12.40;;
4278;SDS011;2153;47.744;10.580;2023-09-12T04:03:53;26.27;;;11.33;;
4278;SDS011;2153;47.744;10.580;2023-09-12T04:06:19;26.53;;;12.70;;
4278;SDS011;2153;47.744;10.580;2023-09-12T04:11:13;29.00;;;13.30;;
4278;SDS011;2153;47.744;10.580;2023-09-12T04:13:39;24.50;;;11.40;;
4278;SDS011;2153;47.744;10.580;2023-09-12T04:16:06;26.47;;;12.20;;
4278;SDS011;2153;47.744;10.580;2023-09-12T04:18:32;33.97;;;11.87;;
4278;SDS011;2153;47.744;10.580;2023-09-12T04:21:01;22.77;;;10.53;;
4278;SDS011;2153;47.744;10.580;2023-09-12T04:23:28;24.73;;;10.63;;
4278;SDS011;2153;47.744;10.580;2023-09-12T04:25:54;26.80;;;11.17;;
4278;SDS011;2153;47.744;10.580;2023-09-12T04:28:21;22.63;;;11.37;;
4278;SDS011;2153;47.744;10.580;2023-09-12T04:30:48;21.97;;;10.40;;
4278;SDS011;2153;47.744;10.580;2023-09-12T04:33:14;26.93;;;12.77;;
4278;SDS011;2153;47.744;10.580;2023-09-12T04:35:41;25.03;;;12.33;;
4278;SDS011;2153;47.744;10.580;2023-09-12T04:38:09;26.10;;;11.50;;
4278;SDS011;2153;47.744;10.580;2023-09-12T04:40:36;23.77;;;10.17;;
4278;SDS011;2153;47.744;10.580;2023-09-12T04:43:04;22.13;;;10.80;;
4278;SDS011;2153;47.744;10.580;2023-09-12T04:45:32;26.03;;;12.70;;
4278;SDS011;2153;47.744;10.580;2023-09-12T04:47:59;25.23;;;12.80;;
4278;SDS011;2153;47.744;10.580;2023-09-12T04:50:26;29.90;;;11.73;;
4278;SDS011;2153;47.744;10.580;2023-09-12T04:52:52;23.83;;;10.73;;
4278;SDS011;2153;47.744;10.580;2023-09-12T04:55:20;35.40;;;12.03;;
4278;SDS011;2153;47.744;10.580;2023-09-12T04:57:47;23.33;;;10.77;;
4278;SDS011;2153;47.744;10.580;2023-09-12T05:00:14;29.20;;;11.67;;
4278;SDS011;2153;47.744;10.580;2023-09-12T05:02:40;24.77;;;13.10;;
4278;SDS011;2153;47.744;10.580;2023-09-12T05:05:07;24.80;;;13.03;;
4278;SDS011;2153;47.744;10.580;2023-09-12T05:07:34;28.77;;;11.87;;
4278;SDS011;2153;47.744;10.580;2023-09-12T05:10:01;23.97;;;12.20;;
4278;SDS011;2153;47.744;10.580;2023-09-12T05:12:30;25.33;;;13.33;;
4278;SDS011;2153;47.744;10.580;2023-09-12T05:14:57;36.90;;;11.87;;
4278;SDS011;2153;47.744;10.580;2023-09-12T05:17:23;26.47;;;11.90;;
4278;SDS011;2153;47.744;10.580;2023-09-12T05:19:50;23.00;;;12.07;;
4278;SDS011;2153;47.744;10.580;2023-09-12T05:22:17;25.07;;;12.63;;
4278;SDS011;2153;47.744;10.580;2023-09-12T05:24:45;25.90;;;12.27;;
4278;SDS011;2153;47.744;10.580;2023-09-12T05:27:11;29.17;;;11.80;;
4278;SDS011;2153;47.744;10.580;2023-09-12T05:29:39;21.13;;;11.30;;
4278;SDS011;2153;47.744;10.580;2023-09-12T05:32:06;27.13;;;11.23;;
4278;SDS011;2153;47.744;10.580;2023-09-12T05:34:33;37.77;;;12.00;;
4278;SDS011;2153;47.744;10.580;2023-09-12T05:37:00;21.83;;;10.87;;
4278;SDS011;2153;47.744;10.580;2023-09-12T05:39:27;21.80;;;9.57;;
4278;SDS011;2153;47.744;10.580;2023-09-12T05:41:54;25.83;;;11.30;;
4278;SDS011;2153;47.744;10.580;2023-09-12T05:44:21;21.20;;;10.23;;
4278;SDS011;2153;47.744;10.580;2023-09-12T05:46:49;27.97;;;13.37;;
4278;SDS011;2153;47.744;10.580;2023-09-12T05:49:15;22.37;;;10.93;;
4278;SDS011;2153;47.744;10.580;2023-09-12T05:51:42;23.97;;;10.63;;
4278;SDS011;2153;47.744;10.580;2023-09-12T05:54:09;21.20;;;10.47;;
4278;SDS011;2153;47.744;10.580;2023-09-12T05:56:36;32.23;;;11.27;;
4278;SDS011;2153;47.744;10.580;2023-09-12T05:59:03;26.33;;;11.00;;
4278;SDS011;2153;47.744;10.580;2023-09-12T06:01:30;26.73;;;11.40;;
4278;SDS011;2153;47.744;10.580;2023-09-12T06:03:58;41.33;;;10.43;;
4278;SDS011;2153;47.744;10.580;2023-09-12T06:06:24;29.00;;;11.20;;
4278;SDS011;2153;47.744;10.580;2023-09-12T06:08:51;25.60;;;11.33;;
4278;SDS011;2153;47.744;10.580;2023-09-12T06:11:18;22.50;;;10.70;;
4278;SDS011;2153;47.744;10.580;2023-09-12T06:13:45;26.13;;;10.13;;
4278;SDS011;2153;47.744;10.580;2023-09-12T06:16:12;29.23;;;10.70;;
4278;SDS011;2153;47.744;10.580;2023-09-12T06:18:38;34.47;;;11.30;;
4278;SDS011;2153;47.744;10.580;2023-09-12T06:21:06;23.20;;;10.90;;
4278;SDS011;2153;47.744;10.580;2023-09-12T06:23:33;27.60;;;10.43;;
4278;SDS011;2153;47.744;10.580;2023-09-12T06:26:00;24.47;;;10.87;;
4278;SDS011;2153;47.744;10.580;2023-09-12T06:28:27;25.93;;;10.10;;
4278;SDS011;2153;47.744;10.580;2023-09-12T06:30:56;21.70;;;9.90;;
4278;SDS011;2153;47.744;10.580;2023-09-12T06:33:31;24.80;;;9.93;;
4278;SDS011;2153;47.744;10.580;2023-09-12T06:35:59;18.40;;;8.73;;
4278;SDS011;2153;47.744;10.580;2023-09-12T06:38:29;37.43;;;11.00;;
4278;SDS011;2153;47.744;10.580;2023-09-12T06:40:58;24.30;;;9.80;;
4278;SDS011;2153;47.744;10.580;2023-09-12T06:43:30;21.27;;;10.90;;
4278;SDS011;2153;47.744;10.580;2023-09-12T06:45:58;21.17;;;9.63;;
4278;SDS011;2153;47.744;10.580;2023-09-12T06:48:26;23.37;;;9.80;;
4278;SDS011;2153;47.744;10.580;2023-09-12T06:50:54;25.77;;;10.70;;
4278;SDS011;2153;47.744;10.580;2023-09-12T06:53:22;36.03;;;9.43;;
4278;SDS011;2153;47.744;10.580;2023-09-12T06:55:51;27.73;;;10.70;;
4278;SDS011;2153;47.744;10.580;2023-09-12T06:58:19;21.97;;;9.20;;
4278;SDS011;2153;47.744;10.580;2023-09-12T07:00:45;20.13;;;9.70;;
4278;SDS011;2153;47.744;10.580;2023-09-12T07:03:12;24.60;;;10.40;;
4278;SDS011;2153;47.744;10.580;2023-09-12T07:05:39;19.53;;;9.77;;
4278;SDS011;2153;47.744;10.580;2023-09-12T07:08:07;21.43;;;10.17;;
4278;SDS011;2153;47.744;10.580;2023-09-12T07:10:34;21.17;;;9.77;;
4278;SDS011;2153;47.744;10.580;2023-09-12T07:13:03;20.57;;;9.97;;
4278;SDS011;2153;47.744;10.580;2023-09-12T07:15:29;25.50;;;10.37;;
4278;SDS011;2153;47.744;10.580;2023-09-12T07:17:56;20.77;;;10.03;;
4278;SDS011;2153;47.744;10.580;2023-09-12T07:20:24;24.30;;;9.80;;
4278;SDS011;2153;47.744;10.580;2023-09-12T07:22:51;19.60;;;9.07;;
4278;SDS011;2153;47.744;10.580;2023-09-12T07:25:17;22.70;;;8.53;;
4278;SDS011;2153;47.744;10.580;2023-09-12T07:27:45;19.93;;;8.90;;
4278;SDS011;2153;47.744;10.580;2023-09-12T07:30:14;33.93;;;8.43;;
4278;SDS011;2153;47.744;10.580;2023-09-12T07:32:40;23.80;;;9.07;;
4278;SDS011;2153;47.744;10.580;2023-09-12T07:35:07;29.80;;;9.50;;
4278;SDS011;2153;47.744;10.580;2023-09-12T07:37:34;17.20;;;7.83;;
4278;SDS011;2153;47.744;10.580;2023-09-12T07:40:00;22.20;;;8.80;;
4278;SDS011;2153;47.744;10.580;2023-09-12T07:42:31;46.07;;;11.10;;
4278;SDS011;2153;47.744;10.580;2023-09-12T07:44:58;22.00;;;8.50;;
4278;SDS011;2153;47.744;10.580;2023-09-12T07:47:26;18.07;;;7.73;;
4278;SDS011;2153;47.744;10.580;2023-09-12T07:49:52;20.47;;;7.97;;
4278;SDS011;2153;47.744;10.580;2023-09-12T07:52:19;18.10;;;8.80;;
4278;SDS011;2153;47.744;10.580;2023-09-12T07:54:46;20.57;;;8.53;;
4278;SDS011;2153;47.744;10.580;2023-09-12T07:57:13;16.60;;;7.93;;
4278;SDS011;2153;47.744;10.580;2023-09-12T07:59:39;20.20;;;8.37;;
4278;SDS011;2153;47.744;10.580;2023-09-12T08:02:06;17.73;;;8.60;;
4278;SDS011;2153;47.744;10.580;2023-09-12T08:04:34;18.20;;;8.17;;
4278;SDS011;2153;47.744;10.580;2023-09-12T08:07:01;19.50;;;8.33;;
4278;SDS011;2153;47.744;10.580;2023-09-12T08:09:47;20.57;;;8.07;;
4278;SDS011;2153;47.744;10.580;2023-09-12T08:12:14;17.10;;;7.30;;
4278;SDS011;2153;47.744;10.580;2023-09-12T08:14:41;19.17;;;7.43;;
4278;SDS011;2153;47.744;10.580;2023-09-12T08:19:36;17.87;;;8.27;;
4278;SDS011;2153;47.744;10.580;2023-09-12T08:22:03;17.60;;;7.60;;
4278;SDS011;2153;47.744;10.580;2023-09-12T08:24:29;16.07;;;7.27;;
4278;SDS011;2153;47.744;10.580;2023-09-12T08:26:56;22.67;;;8.20;;
4278;SDS011;2153;47.744;10.580;2023-09-12T08:29:23;17.20;;;7.87;;
4278;SDS011;2153;47.744;10.580;2023-09-12T08:31:50;22.03;;;7.50;;
4278;SDS011;2153;47.744;10.580;2023-09-12T08:34:18;17.87;;;7.90;;
4278;SDS011;2153;47.744;10.580;2023-09-12T08:36:46;25.17;;;8.93;;
4278;SDS011;2153;47.744;10.580;2023-09-12T08:39:14;16.10;;;7.75;;
4278;SDS011;2153;47.744;10.580;2023-09-12T08:44:08;20.03;;;7.73;;
4278;SDS011;2153;47.744;10.580;2023-09-12T08:46:35;28.03;;;7.87;;
4278;SDS011;2153;47.744;10.580;2023-09-12T08:49:02;18.43;;;9.00;;
4278;SDS011;2153;47.744;10.580;2023-09-12T08:51:32;20.10;;;8.00;;
4278;SDS011;2153;47.744;10.580;2023-09-12T08:54:00;16.97;;;7.97;;
4278;SDS011;2153;47.744;10.580;2023-09-12T08:56:29;19.07;;;8.10;;
4278;SDS011;2153;47.744;10.580;2023-09-12T08:58:57;54.60;;;9.00;;
4278;SDS011;2153;47.744;10.580;2023-09-12T09:01:25;43.97;;;8.90;;
4278;SDS011;2153;47.744;10.580;2023-09-12T09:03:53;26.97;;;7.70;;
4278;SDS011;2153;47.744;10.580;2023-09-12T09:06:20;26.83;;;9.20;;
4278;SDS011;2153;47.744;10.580;2023-09-12T09:08:49;22.30;;;7.83;;
4278;SDS011;2153;47.744;10.580;2023-09-12T09:11:18;25.20;;;8.60;;
4278;SDS011;2153;47.744;10.580;2023-09-12T09:13:44;32.87;;;7.50;;
4278;SDS011;2153;47.744;10.580;2023-09-12T09:16:13;20.23;;;8.20;;
4278;SDS011;2153;47.744;10.580;2023-09-12T09:18:54;35.63;;;8.17;;
4278;SDS011;2153;47.744;10.580;2023-09-12T09:21:23;29.40;;;9.10;;
4278;SDS011;2153;47.744;10.580;2023-09-12T09:23:51;20.40;;;7.40;;
4278;SDS011;2153;47.744;10.580;2023-09-12T09:26:19;17.10;;;7.45;;
4278;SDS011;2153;47.744;10.580;2023-09-12T09:46:13;20.70;;;7.85;;
4278;SDS011;2153;47.744;10.580;2023-09-12T09:48:41;23.75;;;8.30;;
4278;SDS011;2153;47.744;10.580;2023-09-12T09:51:15;19.55;;;8.00;;
4278;SDS011;2153;47.744;10.580;2023-09-12T09:56:09;17.70;;;7.47;;
4278;SDS011;2153;47.744;10.580;2023-09-12T09:58:38;17.20;;;7.93;;
4278;SDS011;2153;47.744;10.580;2023-09-12T10:01:12;16.10;;;7.73;;
4278;SDS011;2153;47.744;10.580;2023-09-12T10:03:40;18.10;;;7.60;;
4278;SDS011;2153;47.744;10.580;2023-09-12T10:06:08;17.20;;;7.80;;
4278;SDS011;2153;47.744;10.580;2023-09-12T10:08:37;23.57;;;7.83;;
4278;SDS011;2153;47.744;10.580;2023-09-12T10:11:06;16.95;;;7.70;;
4278;SDS011;2153;47.744;10.580;2023-09-12T10:13:33;19.40;;;7.90;;
4278;SDS011;2153;47.744;10.580;2023-09-12T10:16:06;27.20;;;7.35;;
4278;SDS011;2153;47.744;10.580;2023-09-12T10:18:35;17.43;;;8.07;;
4278;SDS011;2153;47.744;10.580;2023-09-12T10:21:16;19.33;;;7.27;;
4278;SDS011;2153;47.744;10.580;2023-09-12T10:23:48;18.05;;;7.53;;
4278;SDS011;2153;47.744;10.580;2023-09-12T10:26:16;17.63;;;7.93;;
4278;SDS011;2153;47.744;10.580;2023-09-12T10:28:43;16.75;;;6.85;;
4278;SDS011;2153;47.744;10.580;2023-09-12T10:31:13;16.00;;;6.50;;
4278;SDS011;2153;47.744;10.580;2023-09-12T10:33:41;15.43;;;6.50;;
4278;SDS011;2153;47.744;10.580;2023-09-12T10:41:06;16.50;;;6.30;;
4278;SDS011;2153;47.744;10.580;2023-09-12T10:43:34;16.05;;;6.10;;
4278;SDS011;2153;47.744;10.580;2023-09-12T10:46:01;20.63;;;6.10;;
4278;SDS011;2153;47.744;10.580;2023-09-12T10:48:30;13.93;;;5.55;;
4278;SDS011;2153;47.744;10.580;2023-09-12T10:50:58;16.33;;;5.97;;
4278;SDS011;2153;47.744;10.580;2023-09-12T10:53:26;13.32;;;5.30;;
4278;SDS011;2153;47.744;10.580;2023-09-12T10:56:00;13.65;;;5.82;;
4278;SDS011;2153;47.744;10.580;2023-09-12T11:01:40;17.65;;;6.35;;
4278;SDS011;2153;47.744;10.580;2023-09-12T11:06:59;14.57;;;5.93;;
4278;SDS011;2153;47.744;10.580;2023-09-12T11:09:26;14.80;;;5.53;;
4278;SDS011;2153;47.744;10.580;2023-09-12T11:11:54;16.88;;;5.75;;
4278;SDS011;2153;47.744;10.580;2023-09-12T11:14:22;13.40;;;5.00;;
4278;SDS011;2153;47.744;10.580;2023-09-12T11:19:55;21.67;;;6.00;;
4278;SDS011;2153;47.744;10.580;2023-09-12T11:22:35;26.02;;;7.03;;
4278;SDS011;2153;47.744;10.580;2023-09-12T11:25:04;16.10;;;5.30;;
4278;SDS011;2153;47.744;10.580;2023-09-12T11:27:44;23.70;;;6.20;;
4278;SDS011;2153;47.744;10.580;2023-09-12T11:30:11;20.80;;;5.80;;
4278;SDS011;2153;47.744;10.580;2023-09-12T11:32:39;17.45;;;6.32;;
4278;SDS011;2153;47.744;10.580;2023-09-12T11:35:07;26.10;;;5.82;;
4278;SDS011;2153;47.744;10.580;2023-09-12T11:37:34;15.85;;;5.38;;
4278;SDS011;2153;47.744;10.580;2023-09-12T11:40:02;18.30;;;4.78;;
4278;SDS011;2153;47.744;10.580;2023-09-12T11:42:41;13.35;;;4.97;;
4278;SDS011;2153;47.744;10.580;2023-09-12T11:45:09;15.80;;;5.78;;
4278;SDS011;2153;47.744;10.580;2023-09-12T11:47:39;19.20;;;5.90;;
4278;SDS011;2153;47.744;10.580;2023-09-12T11:50:08;12.63;;;4.88;;
4278;SDS011;2153;47.744;10.580;2023-09-12T11:52:57;12.88;;;5.63;;
4278;SDS011;2153;47.744;10.580;2023-09-12T11:55:25;14.00;;;5.43;;
4278;SDS011;2153;47.744;10.580;2023-09-12T11:57:52;15.23;;;4.85;;
4278;SDS011;2153;47.744;10.580;2023-09-12T12:00:19;14.25;;;5.65;;
4278;SDS011;2153;47.744;10.580;2023-09-12T12:02:46;13.90;;;5.15;;
4278;SDS011;2153;47.744;10.580;2023-09-12T12:05:14;17.45;;;5.38;;
4278;SDS011;2153;47.744;10.580;2023-09-12T12:07:41;18.95;;;5.70;;
4278;SDS011;2153;47.744;10.580;2023-09-12T12:10:10;15.48;;;5.18;;
4278;SDS011;2153;47.744;10.580;2023-09-12T12:12:36;19.58;;;5.57;;
4278;SDS011;2153;47.744;10.580;2023-09-12T12:15:03;14.80;;;5.15;;
4278;SDS011;2153;47.744;10.580;2023-09-12T12:17:36;21.23;;;5.32;;
4278;SDS011;2153;47.744;10.580;2023-09-12T12:20:06;17.63;;;5.63;;
4278;SDS011;2153;47.744;10.580;2023-09-12T12:22:36;13.95;;;5.47;;
4278;SDS011;2153;47.744;10.580;2023-09-12T12:25:07;17.17;;;5.38;;
4278;SDS011;2153;47.744;10.580;2023-09-12T12:27:35;14.52;;;5.40;;
4278;SDS011;2153;47.744;10.580;2023-09-12T12:30:03;17.70;;;5.40;;
4278;SDS011;2153;47.744;10.580;2023-09-12T12:32:30;15.30;;;5.70;;
4278;SDS011;2153;47.744;10.580;2023-09-12T12:34:57;16.60;;;4.68;;
4278;SDS011;2153;47.744;10.580;2023-09-12T12:37:27;15.75;;;6.00;;
4278;SDS011;2153;47.744;10.580;2023-09-12T12:39:57;13.57;;;5.75;;
4278;SDS011;2153;47.744;10.580;2023-09-12T12:42:24;20.48;;;5.72;;
4278;SDS011;2153;47.744;10.580;2023-09-12T12:44:52;20.35;;;5.57;;
4278;SDS011;2153;47.744;10.580;2023-09-12T12:47:20;14.20;;;5.95;;
4278;SDS011;2153;47.744;10.580;2023-09-12T12:49:50;14.60;;;5.43;;
4278;SDS011;2153;47.744;10.580;2023-09-12T12:52:21;14.05;;;5.50;;
4278;SDS011;2153;47.744;10.580;2023-09-12T12:54:48;22.77;;;6.88;;
4278;SDS011;2153;47.744;10.580;2023-09-12T12:57:19;17.80;;;6.32;;
4278;SDS011;2153;47.744;10.580;2023-09-12T12:59:46;22.53;;;6.23;;
4278;SDS011;2153;47.744;10.580;2023-09-12T13:02:14;17.02;;;5.88;;
4278;SDS011;2153;47.744;10.580;2023-09-12T13:04:41;16.10;;;6.35;;
4278;SDS011;2153;47.744;10.580;2023-09-12T13:07:08;13.93;;;6.43;;
4278;SDS011;2153;47.744;10.580;2023-09-12T13:09:35;16.73;;;5.60;;
4278;SDS011;2153;47.744;10.580;2023-09-12T13:12:03;17.10;;;6.30;;
4278;SDS011;2153;47.744;10.580;2023-09-12T13:14:32;16.10;;;6.20;;
4278;SDS011;2153;47.744;10.580;2023-09-12T13:16:59;21.10;;;6.63;;
4278;SDS011;2153;47.744;10.580;2023-09-12T13:19:26;16.20;;;6.35;;
4278;SDS011;2153;47.744;10.580;2023-09-12T13:21:53;15.10;;;6.37;;
4278;SDS011;2153;47.744;10.580;2023-09-12T13:24:19;15.50;;;5.93;;
4278;SDS011;2153;47.744;10.580;2023-09-12T13:26:46;15.60;;;6.93;;
4278;SDS011;2153;47.744;10.580;2023-09-12T13:29:13;27.03;;;6.70;;
4278;SDS011;2153;47.744;10.580;2023-09-12T13:31:41;16.93;;;6.17;;
4278;SDS011;2153;47.744;10.580;2023-09-12T13:34:07;14.93;;;6.10;;
4278;SDS011;2153;47.744;10.580;2023-09-12T13:36:34;19.25;;;6.45;;
4278;SDS011;2153;47.744;10.580;2023-09-12T13:39:01;18.33;;;7.15;;
4278;SDS011;2153;47.744;10.580;2023-09-12T13:41:27;16.58;;;6.57;;
4278;SDS011;2153;47.744;10.580;2023-09-12T13:43:54;17.10;;;6.93;;
4278;SDS011;2153;47.744;10.580;2023-09-12T13:46:21;15.37;;;5.60;;
4278;SDS011;2153;47.744;10.580;2023-09-12T13:48:49;17.83;;;6.60;;
4278;SDS011;2153;47.744;10.580;2023-09-12T13:51:15;18.80;;;6.83;;
4278;SDS011;2153;47.744;10.580;2023-09-12T13:53:42;16.50;;;6.77;;
4278;SDS011;2153;47.744;10.580;2023-09-12T13:56:09;14.53;;;6.53;;
4278;SDS011;2153;47.744;10.580;2023-09-12T13:58:35;14.37;;;5.63;;
4278;SDS011;2153;47.744;10.580;2023-09-12T14:01:02;22.37;;;7.03;;
4278;SDS011;2153;47.744;10.580;2023-09-12T14:03:29;17.63;;;6.53;;
4278;SDS011;2153;47.744;10.580;2023-09-12T14:05:57;14.60;;;5.80;;
4278;SDS011;2153;47.744;10.580;2023-09-12T14:08:24;16.60;;;6.00;;
4278;SDS011;2153;47.744;10.580;2023-09-12T14:10:50;13.73;;;5.63;;
4278;SDS011;2153;47.744;10.580;2023-09-12T14:13:17;15.25;;;5.65;;
4278;SDS011;2153;47.744;10.580;2023-09-12T14:15:44;23.23;;;6.00;;
4278;SDS011;2153;47.744;10.580;2023-09-12T14:18:11;18.50;;;5.50;;
4278;SDS011;2153;47.744;10.580;2023-09-12T14:20:38;15.43;;;5.50;;
4278;SDS011;2153;47.744;10.580;2023-09-12T14:23:06;15.85;;;5.88;;
4278;SDS011;2153;47.744;10.580;2023-09-12T14:25:32;17.20;;;5.63;;
4278;SDS011;2153;47.744;10.580;2023-09-12T14:27:59;17.00;;;5.90;;
4278;SDS011;2153;47.744;10.580;2023-09-12T14:30:26;15.07;;;6.17;;
4278;SDS011;2153;47.744;10.580;2023-09-12T14:32:59;15.90;;;5.63;;
4278;SDS011;2153;47.744;10.580;2023-09-12T14:35:27;15.00;;;6.10;;
4278;SDS011;2153;47.744;10.580;2023-09-12T14:37:53;17.00;;;5.97;;
4278;SDS011;2153;47.744;10.580;2023-09-12T14:40:22;17.50;;;6.07;;
4278;SDS011;2153;47.744;10.580;2023-09-12T14:42:49;15.77;;;6.23;;
4278;SDS011;2153;47.744;10.580;2023-09-12T14:45:16;21.93;;;5.57;;
4278;SDS011;2153;47.744;10.580;2023-09-12T14:47:43;15.90;;;6.70;;
4278;SDS011;2153;47.744;10.580;2023-09-12T14:50:10;16.40;;;6.20;;
4278;SDS011;2153;47.744;10.580;2023-09-12T14:52:36;14.03;;;6.17;;
4278;SDS011;2153;47.744;10.580;2023-09-12T14:55:05;16.00;;;5.50;;
4278;SDS011;2153;47.744;10.580;2023-09-12T14:57:34;15.60;;;6.40;;
4278;SDS011;2153;47.744;10.580;2023-09-12T15:00:01;13.90;;;5.37;;
4278;SDS011;2153;47.744;10.580;2023-09-12T15:02:28;17.30;;;6.10;;
4278;SDS011;2153;47.744;10.580;2023-09-12T15:04:57;15.50;;;5.80;;
4278;SDS011;2153;47.744;10.580;2023-09-12T15:07:24;15.20;;;6.70;;
4278;SDS011;2153;47.744;10.580;2023-09-12T15:09:50;16.40;;;5.87;;
4278;SDS011;2153;47.744;10.580;2023-09-12T15:12:17;17.63;;;5.90;;
4278;SDS011;2153;47.744;10.580;2023-09-12T15:14:45;20.23;;;6.83;;
4278;SDS011;2153;47.744;10.580;2023-09-12T15:17:12;21.67;;;6.60;;
4278;SDS011;2153;47.744;10.580;2023-09-12T15:19:38;16.10;;;6.60;;
4278;SDS011;2153;47.744;10.580;2023-09-12T15:22:05;15.03;;;6.43;;
4278;SDS011;2153;47.744;10.580;2023-09-12T15:24:32;16.20;;;6.90;;
4278;SDS011;2153;47.744;10.580;2023-09-12T15:26:58;16.33;;;6.23;;
4278;SDS011;2153;47.744;10.580;2023-09-12T15:29:25;16.30;;;5.50;;